sensor_id;sensor_type;location;lat;lon;timestamp;P1;durP1;ratioP1;P2;durP2;ratioP2
9997;SDS011;5038;53.064;8.624;2023-08-24T00:00:31;4.20;;;3.33;;
9997;SDS011;5038;53.064;8.624;2023-08-24T00:03:00;4.40;;;3.10;;
9997;SDS011;5038;53.064;8.624;2023-08-24T00:05:32;5.27;;;3.87;;
9997;SDS011;5038;53.064;8.624;2023-08-24T00:08:01;4.23;;;3.40;;
9997;SDS011;5038;53.064;8.624;2023-08-24T00:10:29;4.13;;;3.73;;
9997;SDS011;5038;53.064;8.624;2023-08-24T00:12:58;4.33;;;3.90;;
9997;SDS011;5038;53.064;8.624;2023-08-24T00:15:28;4.40;;;3.77;;
9997;SDS011;5038;53.064;8.624;2023-08-24T00:17:56;4.27;;;3.87;;
9997;SDS011;5038;53.064;8.624;2023-08-24T00:20:25;7.00;;;3.97;;
9997;SDS011;5038;53.064;8.624;2023-08-24T00:22:53;4.70;;;3.50;;
9997;SDS011;5038;53.064;8.624;2023-08-24T00:25:21;5.10;;;3.60;;
9997;SDS011;5038;53.064;8.624;2023-08-24T00:27:49;4.03;;;3.40;;
9997;SDS011;5038;53.064;8.624;2023-08-24T00:30:18;3.90;;;3.50;;
9997;SDS011;5038;53.064;8.624;2023-08-24T00:32:47;5.13;;;3.30;;
9997;SDS011;5038;53.064;8.624;2023-08-24T00:35:16;4.03;;;3.53;;
9997;SDS011;5038;53.064;8.624;2023-08-24T00:37:45;4.80;;;3.57;;
9997;SDS011;5038;53.064;8.624;2023-08-24T00:40:14;4.47;;;3.00;;
9997;SDS011;5038;53.064;8.624;2023-08-24T00:42:43;7.47;;;3.30;;
9997;SDS011;5038;53.064;8.624;2023-08-24T00:45:12;4.27;;;3.00;;
9997;SDS011;5038;53.064;8.624;2023-08-24T00:47:41;4.30;;;3.67;;
9997;SDS011;5038;53.064;8.624;2023-08-24T00:50:13;3.23;;;2.43;;
9997;SDS011;5038;53.064;8.624;2023-08-24T00:52:43;5.57;;;2.77;;
9997;SDS011;5038;53.064;8.624;2023-08-24T00:55:11;3.10;;;2.80;;
9997;SDS011;5038;53.064;8.624;2023-08-24T00:57:40;4.10;;;2.90;;
9997;SDS011;5038;53.064;8.624;2023-08-24T01:00:09;3.77;;;3.23;;
9997;SDS011;5038;53.064;8.624;2023-08-24T01:02:38;5.60;;;2.77;;
9997;SDS011;5038;53.064;8.624;2023-08-24T01:05:06;4.00;;;3.00;;
9997;SDS011;5038;53.064;8.624;2023-08-24T01:07:37;5.83;;;3.60;;
9997;SDS011;5038;53.064;8.624;2023-08-24T01:10:08;3.53;;;2.97;;
9997;SDS011;5038;53.064;8.624;2023-08-24T01:12:42;4.00;;;3.30;;
9997;SDS011;5038;53.064;8.624;2023-08-24T01:15:24;3.40;;;3.10;;
9997;SDS011;5038;53.064;8.624;2023-08-24T01:18:00;5.10;;;2.87;;
9997;SDS011;5038;53.064;8.624;2023-08-24T01:20:32;4.47;;;3.40;;
9997;SDS011;5038;53.064;8.624;2023-08-24T01:23:07;6.73;;;2.90;;
9997;SDS011;5038;53.064;8.624;2023-08-24T01:25:46;4.60;;;2.70;;
9997;SDS011;5038;53.064;8.624;2023-08-24T01:28:20;4.60;;;3.10;;
9997;SDS011;5038;53.064;8.624;2023-08-24T01:30:49;3.27;;;2.97;;
9997;SDS011;5038;53.064;8.624;2023-08-24T01:33:17;3.43;;;2.83;;
9997;SDS011;5038;53.064;8.624;2023-08-24T01:35:46;4.00;;;3.70;;
9997;SDS011;5038;53.064;8.624;2023-08-24T01:38:14;3.73;;;3.43;;
9997;SDS011;5038;53.064;8.624;2023-08-24T01:40:45;6.27;;;4.00;;
9997;SDS011;5038;53.064;8.624;2023-08-24T01:43:21;5.57;;;4.47;;
9997;SDS011;5038;53.064;8.624;2023-08-24T01:46:08;4.27;;;3.90;;
9997;SDS011;5038;53.064;8.624;2023-08-24T01:48:41;4.70;;;4.00;;
9997;SDS011;5038;53.064;8.624;2023-08-24T01:51:10;4.70;;;4.20;;
9997;SDS011;5038;53.064;8.624;2023-08-24T01:53:39;7.00;;;4.50;;
9997;SDS011;5038;53.064;8.624;2023-08-24T01:56:08;4.70;;;4.23;;
9997;SDS011;5038;53.064;8.624;2023-08-24T01:58:39;6.87;;;5.53;;
9997;SDS011;5038;53.064;8.624;2023-08-24T02:01:07;5.20;;;4.70;;
9997;SDS011;5038;53.064;8.624;2023-08-24T02:03:37;7.03;;;5.10;;
9997;SDS011;5038;53.064;8.624;2023-08-24T02:08:55;6.40;;;4.90;;
9997;SDS011;5038;53.064;8.624;2023-08-24T02:11:23;5.30;;;4.80;;
9997;SDS011;5038;53.064;8.624;2023-08-24T02:13:52;5.00;;;4.53;;
9997;SDS011;5038;53.064;8.624;2023-08-24T02:16:21;4.97;;;4.53;;
9997;SDS011;5038;53.064;8.624;2023-08-24T02:18:50;6.23;;;5.57;;
9997;SDS011;5038;53.064;8.624;2023-08-24T02:21:18;8.73;;;6.13;;
9997;SDS011;5038;53.064;8.624;2023-08-24T02:23:46;5.47;;;4.87;;
9997;SDS011;5038;53.064;8.624;2023-08-24T02:26:16;6.43;;;5.60;;
9997;SDS011;5038;53.064;8.624;2023-08-24T02:28:45;5.53;;;5.03;;
9997;SDS011;5038;53.064;8.624;2023-08-24T02:31:15;6.00;;;5.40;;
9997;SDS011;5038;53.064;8.624;2023-08-24T02:33:43;7.23;;;6.27;;
9997;SDS011;5038;53.064;8.624;2023-08-24T02:36:11;5.87;;;5.17;;
9997;SDS011;5038;53.064;8.624;2023-08-24T02:38:39;5.50;;;4.97;;
9997;SDS011;5038;53.064;8.624;2023-08-24T02:41:08;5.40;;;5.00;;
9997;SDS011;5038;53.064;8.624;2023-08-24T02:43:37;6.03;;;5.43;;
9997;SDS011;5038;53.064;8.624;2023-08-24T02:46:06;5.40;;;4.90;;
9997;SDS011;5038;53.064;8.624;2023-08-24T02:48:37;6.50;;;5.90;;
9997;SDS011;5038;53.064;8.624;2023-08-24T02:51:05;5.97;;;5.10;;
9997;SDS011;5038;53.064;8.624;2023-08-24T02:53:36;5.80;;;5.23;;
9997;SDS011;5038;53.064;8.624;2023-08-24T02:56:04;7.00;;;5.47;;
9997;SDS011;5038;53.064;8.624;2023-08-24T02:58:33;8.97;;;5.90;;
9997;SDS011;5038;53.064;8.624;2023-08-24T03:01:03;7.50;;;6.40;;
9997;SDS011;5038;53.064;8.624;2023-08-24T03:03:33;6.70;;;6.03;;
9997;SDS011;5038;53.064;8.624;2023-08-24T03:06:03;6.40;;;5.80;;
9997;SDS011;5038;53.064;8.624;2023-08-24T03:08:33;7.23;;;6.63;;
9997;SDS011;5038;53.064;8.624;2023-08-24T03:11:02;7.90;;;7.10;;
9997;SDS011;5038;53.064;8.624;2023-08-24T03:13:30;9.17;;;7.10;;
9997;SDS011;5038;53.064;8.624;2023-08-24T03:16:02;7.07;;;6.37;;
9997;SDS011;5038;53.064;8.624;2023-08-24T03:18:32;7.10;;;6.50;;
9997;SDS011;5038;53.064;8.624;2023-08-24T03:21:03;7.63;;;6.93;;
9997;SDS011;5038;53.064;8.624;2023-08-24T03:23:33;8.70;;;6.90;;
9997;SDS011;5038;53.064;8.624;2023-08-24T03:26:01;7.80;;;7.10;;
9997;SDS011;5038;53.064;8.624;2023-08-24T03:28:31;8.70;;;7.90;;
9997;SDS011;5038;53.064;8.624;2023-08-24T03:31:00;8.37;;;7.57;;
9997;SDS011;5038;53.064;8.624;2023-08-24T03:33:28;7.97;;;7.10;;
9997;SDS011;5038;53.064;8.624;2023-08-24T03:35:57;8.97;;;8.17;;
9997;SDS011;5038;53.064;8.624;2023-08-24T03:38:27;8.67;;;7.67;;
9997;SDS011;5038;53.064;8.624;2023-08-24T03:40:59;11.17;;;8.10;;
9997;SDS011;5038;53.064;8.624;2023-08-24T03:43:31;8.60;;;7.80;;
9997;SDS011;5038;53.064;8.624;2023-08-24T03:46:00;8.80;;;8.03;;
9997;SDS011;5038;53.064;8.624;2023-08-24T03:48:30;8.40;;;7.70;;
9997;SDS011;5038;53.064;8.624;2023-08-24T03:50:58;9.57;;;8.03;;
9997;SDS011;5038;53.064;8.624;2023-08-24T03:53:30;7.90;;;7.20;;
9997;SDS011;5038;53.064;8.624;2023-08-24T03:55:59;8.57;;;7.87;;
9997;SDS011;5038;53.064;8.624;2023-08-24T03:58:27;9.00;;;8.10;;
9997;SDS011;5038;53.064;8.624;2023-08-24T04:00:56;10.63;;;8.30;;
9997;SDS011;5038;53.064;8.624;2023-08-24T04:03:25;9.87;;;7.83;;
9997;SDS011;5038;53.064;8.624;2023-08-24T04:05:53;7.20;;;6.57;;
9997;SDS011;5038;53.064;8.624;2023-08-24T04:08:21;7.00;;;6.40;;
9997;SDS011;5038;53.064;8.624;2023-08-24T04:10:51;6.70;;;6.20;;
9997;SDS011;5038;53.064;8.624;2023-08-24T04:13:19;8.17;;;7.47;;
9997;SDS011;5038;53.064;8.624;2023-08-24T04:15:47;6.50;;;6.00;;
9997;SDS011;5038;53.064;8.624;2023-08-24T04:18:16;7.53;;;6.73;;
9997;SDS011;5038;53.064;8.624;2023-08-24T04:20:44;7.37;;;6.67;;
9997;SDS011;5038;53.064;8.624;2023-08-24T04:23:13;7.77;;;7.00;;
9997;SDS011;5038;53.064;8.624;2023-08-24T04:25:42;8.97;;;8.07;;
9997;SDS011;5038;53.064;8.624;2023-08-24T04:28:12;8.33;;;7.57;;
9997;SDS011;5038;53.064;8.624;2023-08-24T04:30:40;8.80;;;7.90;;
9997;SDS011;5038;53.064;8.624;2023-08-24T04:33:08;9.97;;;7.40;;
9997;SDS011;5038;53.064;8.624;2023-08-24T04:35:36;7.40;;;6.67;;
9997;SDS011;5038;53.064;8.624;2023-08-24T04:38:04;10.13;;;7.40;;
9997;SDS011;5038;53.064;8.624;2023-08-24T04:40:44;7.63;;;6.93;;
9997;SDS011;5038;53.064;8.624;2023-08-24T04:43:15;8.20;;;7.50;;
9997;SDS011;5038;53.064;8.624;2023-08-24T04:45:45;10.37;;;9.37;;
9997;SDS011;5038;53.064;8.624;2023-08-24T04:48:14;10.77;;;9.77;;
9997;SDS011;5038;53.064;8.624;2023-08-24T04:50:43;10.50;;;8.80;;
9997;SDS011;5038;53.064;8.624;2023-08-24T04:53:13;10.23;;;9.20;;
9997;SDS011;5038;53.064;8.624;2023-08-24T04:55:42;9.40;;;8.37;;
9997;SDS011;5038;53.064;8.624;2023-08-24T04:58:11;9.17;;;8.20;;
9997;SDS011;5038;53.064;8.624;2023-08-24T05:00:42;8.60;;;7.80;;
9997;SDS011;5038;53.064;8.624;2023-08-24T05:03:10;10.83;;;7.23;;
9997;SDS011;5038;53.064;8.624;2023-08-24T05:05:40;13.47;;;9.53;;
9997;SDS011;5038;53.064;8.624;2023-08-24T05:08:08;9.10;;;8.30;;
9997;SDS011;5038;53.064;8.624;2023-08-24T05:10:39;10.43;;;8.50;;
9997;SDS011;5038;53.064;8.624;2023-08-24T05:13:07;10.30;;;9.10;;
9997;SDS011;5038;53.064;8.624;2023-08-24T05:15:36;8.23;;;7.43;;
9997;SDS011;5038;53.064;8.624;2023-08-24T05:18:05;9.47;;;8.60;;
9997;SDS011;5038;53.064;8.624;2023-08-24T05:20:34;9.60;;;8.70;;
9997;SDS011;5038;53.064;8.624;2023-08-24T05:23:02;8.53;;;7.70;;
9997;SDS011;5038;53.064;8.624;2023-08-24T05:25:30;11.87;;;10.70;;
9997;SDS011;5038;53.064;8.624;2023-08-24T05:28:00;10.73;;;9.00;;
9997;SDS011;5038;53.064;8.624;2023-08-24T05:30:29;15.13;;;9.53;;
9997;SDS011;5038;53.064;8.624;2023-08-24T05:32:57;9.93;;;8.93;;
9997;SDS011;5038;53.064;8.624;2023-08-24T05:35:27;10.30;;;9.40;;
9997;SDS011;5038;53.064;8.624;2023-08-24T05:37:55;10.20;;;8.77;;
9997;SDS011;5038;53.064;8.624;2023-08-24T05:40:23;9.67;;;8.77;;
9997;SDS011;5038;53.064;8.624;2023-08-24T05:42:52;11.23;;;9.27;;
9997;SDS011;5038;53.064;8.624;2023-08-24T05:45:20;10.10;;;9.10;;
9997;SDS011;5038;53.064;8.624;2023-08-24T05:47:52;12.67;;;9.23;;
9997;SDS011;5038;53.064;8.624;2023-08-24T05:50:20;10.13;;;8.97;;
9997;SDS011;5038;53.064;8.624;2023-08-24T05:52:50;10.80;;;9.40;;
9997;SDS011;5038;53.064;8.624;2023-08-24T05:55:19;13.73;;;10.27;;
9997;SDS011;5038;53.064;8.624;2023-08-24T05:57:47;10.27;;;9.13;;
9997;SDS011;5038;53.064;8.624;2023-08-24T06:00:16;10.27;;;9.37;;
9997;SDS011;5038;53.064;8.624;2023-08-24T06:02:44;9.90;;;8.93;;
9997;SDS011;5038;53.064;8.624;2023-08-24T06:05:13;11.00;;;10.03;;
9997;SDS011;5038;53.064;8.624;2023-08-24T06:07:44;9.47;;;8.57;;
9997;SDS011;5038;53.064;8.624;2023-08-24T06:10:14;10.83;;;8.77;;
9997;SDS011;5038;53.064;8.624;2023-08-24T06:12:43;15.53;;;8.33;;
9997;SDS011;5038;53.064;8.624;2023-08-24T06:15:11;11.63;;;8.40;;
9997;SDS011;5038;53.064;8.624;2023-08-24T06:17:40;9.13;;;8.10;;
9997;SDS011;5038;53.064;8.624;2023-08-24T06:20:09;8.07;;;7.33;;
9997;SDS011;5038;53.064;8.624;2023-08-24T06:22:39;12.37;;;10.10;;
9997;SDS011;5038;53.064;8.624;2023-08-24T06:25:07;12.87;;;10.30;;
9997;SDS011;5038;53.064;8.624;2023-08-24T06:27:37;8.90;;;7.40;;
9997;SDS011;5038;53.064;8.624;2023-08-24T06:30:06;12.00;;;7.57;;
9997;SDS011;5038;53.064;8.624;2023-08-24T06:32:34;8.93;;;6.63;;
9997;SDS011;5038;53.064;8.624;2023-08-24T06:35:03;7.53;;;6.20;;
9997;SDS011;5038;53.064;8.624;2023-08-24T06:37:33;7.50;;;5.57;;
9997;SDS011;5038;53.064;8.624;2023-08-24T06:40:01;7.60;;;4.80;;
9997;SDS011;5038;53.064;8.624;2023-08-24T06:42:31;8.70;;;7.13;;
9997;SDS011;5038;53.064;8.624;2023-08-24T06:45:01;13.87;;;10.50;;
9997;SDS011;5038;53.064;8.624;2023-08-24T06:47:29;5.03;;;4.53;;
9997;SDS011;5038;53.064;8.624;2023-08-24T06:49:58;8.13;;;5.10;;
9997;SDS011;5038;53.064;8.624;2023-08-24T06:52:26;9.23;;;5.97;;
9997;SDS011;5038;53.064;8.624;2023-08-24T06:54:54;6.53;;;5.57;;
9997;SDS011;5038;53.064;8.624;2023-08-24T06:57:23;6.50;;;5.27;;
9997;SDS011;5038;53.064;8.624;2023-08-24T06:59:51;6.77;;;5.57;;
9997;SDS011;5038;53.064;8.624;2023-08-24T07:02:20;8.60;;;7.30;;
9997;SDS011;5038;53.064;8.624;2023-08-24T07:04:49;11.70;;;7.80;;
9997;SDS011;5038;53.064;8.624;2023-08-24T07:07:17;6.30;;;5.40;;
9997;SDS011;5038;53.064;8.624;2023-08-24T07:09:46;5.10;;;4.03;;
9997;SDS011;5038;53.064;8.624;2023-08-24T07:12:14;7.13;;;4.30;;
9997;SDS011;5038;53.064;8.624;2023-08-24T07:14:42;8.60;;;4.97;;
9997;SDS011;5038;53.064;8.624;2023-08-24T07:17:10;7.33;;;5.20;;
9997;SDS011;5038;53.064;8.624;2023-08-24T07:19:39;7.87;;;5.30;;
9997;SDS011;5038;53.064;8.624;2023-08-24T07:22:08;5.10;;;4.60;;
9997;SDS011;5038;53.064;8.624;2023-08-24T07:24:36;7.33;;;4.37;;
9997;SDS011;5038;53.064;8.624;2023-08-24T07:27:12;4.60;;;4.20;;
9997;SDS011;5038;53.064;8.624;2023-08-24T07:29:40;7.57;;;5.90;;
9997;SDS011;5038;53.064;8.624;2023-08-24T07:32:08;7.77;;;5.07;;
9997;SDS011;5038;53.064;8.624;2023-08-24T07:34:37;7.17;;;5.30;;
9997;SDS011;5038;53.064;8.624;2023-08-24T07:37:07;9.70;;;6.80;;
9997;SDS011;5038;53.064;8.624;2023-08-24T07:39:35;5.40;;;4.40;;
9997;SDS011;5038;53.064;8.624;2023-08-24T07:42:05;9.27;;;5.57;;
9997;SDS011;5038;53.064;8.624;2023-08-24T07:44:33;6.00;;;5.07;;
9997;SDS011;5038;53.064;8.624;2023-08-24T07:47:02;6.87;;;4.90;;
9997;SDS011;5038;53.064;8.624;2023-08-24T07:49:31;6.33;;;4.67;;
9997;SDS011;5038;53.064;8.624;2023-08-24T07:51:59;6.70;;;5.70;;
9997;SDS011;5038;53.064;8.624;2023-08-24T07:54:28;10.53;;;9.07;;
9997;SDS011;5038;53.064;8.624;2023-08-24T07:56:57;9.80;;;4.60;;
9997;SDS011;5038;53.064;8.624;2023-08-24T07:59:25;9.43;;;6.37;;
9997;SDS011;5038;53.064;8.624;2023-08-24T08:01:53;8.50;;;5.30;;
9997;SDS011;5038;53.064;8.624;2023-08-24T08:04:22;5.90;;;4.73;;
9997;SDS011;5038;53.064;8.624;2023-08-24T08:06:50;4.30;;;3.30;;
9997;SDS011;5038;53.064;8.624;2023-08-24T08:09:18;4.00;;;3.37;;
9997;SDS011;5038;53.064;8.624;2023-08-24T08:11:48;3.43;;;3.13;;
9997;SDS011;5038;53.064;8.624;2023-08-24T08:14:16;4.50;;;3.70;;
9997;SDS011;5038;53.064;8.624;2023-08-24T08:16:45;5.80;;;5.20;;
9997;SDS011;5038;53.064;8.624;2023-08-24T08:19:13;5.73;;;5.20;;
9997;SDS011;5038;53.064;8.624;2023-08-24T08:21:41;6.40;;;4.27;;
9997;SDS011;5038;53.064;8.624;2023-08-24T08:24:09;4.90;;;3.40;;
9997;SDS011;5038;53.064;8.624;2023-08-24T08:26:51;8.70;;;5.73;;
9997;SDS011;5038;53.064;8.624;2023-08-24T08:29:20;6.20;;;4.00;;
9997;SDS011;5038;53.064;8.624;2023-08-24T08:31:48;6.83;;;5.23;;
9997;SDS011;5038;53.064;8.624;2023-08-24T08:34:17;7.83;;;5.47;;
9997;SDS011;5038;53.064;8.624;2023-08-24T08:36:45;6.13;;;3.30;;
9997;SDS011;5038;53.064;8.624;2023-08-24T08:39:13;3.90;;;3.10;;
9997;SDS011;5038;53.064;8.624;2023-08-24T08:41:44;10.53;;;8.67;;
9997;SDS011;5038;53.064;8.624;2023-08-24T08:44:15;7.70;;;7.00;;
9997;SDS011;5038;53.064;8.624;2023-08-24T08:46:43;6.80;;;5.07;;
9997;SDS011;5038;53.064;8.624;2023-08-24T08:49:12;5.50;;;4.67;;
9997;SDS011;5038;53.064;8.624;2023-08-24T08:51:43;6.33;;;4.20;;
9997;SDS011;5038;53.064;8.624;2023-08-24T08:54:11;7.47;;;6.40;;
9997;SDS011;5038;53.064;8.624;2023-08-24T08:56:50;5.73;;;3.97;;
9997;SDS011;5038;53.064;8.624;2023-08-24T08:59:24;4.13;;;3.73;;
9997;SDS011;5038;53.064;8.624;2023-08-24T09:01:55;6.13;;;4.47;;
9997;SDS011;5038;53.064;8.624;2023-08-24T09:04:24;5.23;;;4.73;;
9997;SDS011;5038;53.064;8.624;2023-08-24T09:06:53;4.97;;;4.47;;
9997;SDS011;5038;53.064;8.624;2023-08-24T09:09:22;5.20;;;4.30;;
9997;SDS011;5038;53.064;8.624;2023-08-24T09:11:51;4.77;;;3.30;;
9997;SDS011;5038;53.064;8.624;2023-08-24T09:14:20;7.43;;;6.73;;
9997;SDS011;5038;53.064;8.624;2023-08-24T09:16:49;4.33;;;3.43;;
9997;SDS011;5038;53.064;8.624;2023-08-24T09:19:18;7.90;;;4.30;;
9997;SDS011;5038;53.064;8.624;2023-08-24T09:21:46;7.57;;;6.13;;
9997;SDS011;5038;53.064;8.624;2023-08-24T09:24:14;7.43;;;6.20;;
9997;SDS011;5038;53.064;8.624;2023-08-24T09:26:42;6.73;;;6.00;;
9997;SDS011;5038;53.064;8.624;2023-08-24T09:29:11;8.13;;;5.73;;
9997;SDS011;5038;53.064;8.624;2023-08-24T09:31:40;7.00;;;4.60;;
9997;SDS011;5038;53.064;8.624;2023-08-24T09:34:12;7.43;;;6.53;;
9997;SDS011;5038;53.064;8.624;2023-08-24T09:36:41;7.03;;;4.70;;
9997;SDS011;5038;53.064;8.624;2023-08-24T09:39:12;12.60;;;8.30;;
9997;SDS011;5038;53.064;8.624;2023-08-24T09:41:46;7.00;;;5.83;;
9997;SDS011;5038;53.064;8.624;2023-08-24T09:44:16;8.80;;;6.37;;
9997;SDS011;5038;53.064;8.624;2023-08-24T09:46:44;7.30;;;6.40;;
9997;SDS011;5038;53.064;8.624;2023-08-24T09:49:14;6.40;;;5.80;;
9997;SDS011;5038;53.064;8.624;2023-08-24T09:51:42;6.23;;;5.60;;
9997;SDS011;5038;53.064;8.624;2023-08-24T09:54:11;7.73;;;5.67;;
9997;SDS011;5038;53.064;8.624;2023-08-24T09:56:43;9.63;;;6.30;;
9997;SDS011;5038;53.064;8.624;2023-08-24T09:59:13;8.40;;;5.40;;
9997;SDS011;5038;53.064;8.624;2023-08-24T10:01:45;6.73;;;6.13;;
9997;SDS011;5038;53.064;8.624;2023-08-24T10:04:17;6.53;;;4.87;;
9997;SDS011;5038;53.064;8.624;2023-08-24T10:06:51;6.33;;;5.10;;
9997;SDS011;5038;53.064;8.624;2023-08-24T10:09:21;7.60;;;5.37;;
9997;SDS011;5038;53.064;8.624;2023-08-24T10:11:55;6.83;;;6.00;;
9997;SDS011;5038;53.064;8.624;2023-08-24T10:14:28;8.57;;;5.60;;
9997;SDS011;5038;53.064;8.624;2023-08-24T10:16:58;5.90;;;5.30;;
9997;SDS011;5038;53.064;8.624;2023-08-24T10:19:29;8.83;;;5.23;;
9997;SDS011;5038;53.064;8.624;2023-08-24T10:21:58;6.03;;;4.80;;
9997;SDS011;5038;53.064;8.624;2023-08-24T10:24:29;6.00;;;5.07;;
9997;SDS011;5038;53.064;8.624;2023-08-24T10:26:58;5.57;;;4.00;;
9997;SDS011;5038;53.064;8.624;2023-08-24T10:29:29;6.27;;;5.27;;
9997;SDS011;5038;53.064;8.624;2023-08-24T10:31:57;7.43;;;5.30;;
9997;SDS011;5038;53.064;8.624;2023-08-24T10:34:26;5.60;;;5.07;;
9997;SDS011;5038;53.064;8.624;2023-08-24T10:36:56;8.77;;;4.40;;
9997;SDS011;5038;53.064;8.624;2023-08-24T10:39:27;9.73;;;5.53;;
9997;SDS011;5038;53.064;8.624;2023-08-24T10:41:56;9.23;;;5.20;;
9997;SDS011;5038;53.064;8.624;2023-08-24T10:44:33;9.27;;;6.07;;
9997;SDS011;5038;53.064;8.624;2023-08-24T10:47:05;7.03;;;5.27;;
9997;SDS011;5038;53.064;8.624;2023-08-24T10:49:56;10.07;;;6.27;;
9997;SDS011;5038;53.064;8.624;2023-08-24T10:52:30;5.00;;;4.30;;
9997;SDS011;5038;53.064;8.624;2023-08-24T10:55:00;5.43;;;4.43;;
9997;SDS011;5038;53.064;8.624;2023-08-24T10:57:34;6.00;;;5.17;;
9997;SDS011;5038;53.064;8.624;2023-08-24T11:00:04;7.07;;;4.57;;
9997;SDS011;5038;53.064;8.624;2023-08-24T11:02:43;10.60;;;5.70;;
9997;SDS011;5038;53.064;8.624;2023-08-24T11:05:17;6.33;;;4.90;;
9997;SDS011;5038;53.064;8.624;2023-08-24T11:07:48;5.63;;;5.13;;
9997;SDS011;5038;53.064;8.624;2023-08-24T11:10:17;5.77;;;4.97;;
9997;SDS011;5038;53.064;8.624;2023-08-24T11:13:05;5.50;;;4.63;;
9997;SDS011;5038;53.064;8.624;2023-08-24T11:15:39;6.40;;;5.60;;
9997;SDS011;5038;53.064;8.624;2023-08-24T11:18:11;5.47;;;4.97;;
9997;SDS011;5038;53.064;8.624;2023-08-24T11:20:49;5.20;;;4.70;;
9997;SDS011;5038;53.064;8.624;2023-08-24T11:23:19;6.30;;;4.90;;
9997;SDS011;5038;53.064;8.624;2023-08-24T11:25:49;6.13;;;4.33;;
9997;SDS011;5038;53.064;8.624;2023-08-24T11:28:21;5.73;;;5.20;;
9997;SDS011;5038;53.064;8.624;2023-08-24T11:30:50;5.97;;;5.20;;
9997;SDS011;5038;53.064;8.624;2023-08-24T11:33:26;5.30;;;4.60;;
9997;SDS011;5038;53.064;8.624;2023-08-24T11:35:57;5.07;;;4.57;;
9997;SDS011;5038;53.064;8.624;2023-08-24T11:38:34;5.67;;;5.00;;
9997;SDS011;5038;53.064;8.624;2023-08-24T11:41:10;5.70;;;4.73;;
9997;SDS011;5038;53.064;8.624;2023-08-24T11:43:39;6.90;;;4.50;;
9997;SDS011;5038;53.064;8.624;2023-08-24T11:46:07;4.93;;;4.17;;
9997;SDS011;5038;53.064;8.624;2023-08-24T11:48:36;8.53;;;7.00;;
9997;SDS011;5038;53.064;8.624;2023-08-24T11:51:09;9.50;;;7.80;;
9997;SDS011;5038;53.064;8.624;2023-08-24T11:53:41;4.87;;;4.33;;
9997;SDS011;5038;53.064;8.624;2023-08-24T11:56:10;4.73;;;4.10;;
9997;SDS011;5038;53.064;8.624;2023-08-24T11:58:38;5.73;;;4.43;;
9997;SDS011;5038;53.064;8.624;2023-08-24T12:01:07;5.67;;;3.90;;
9997;SDS011;5038;53.064;8.624;2023-08-24T12:03:36;5.83;;;4.47;;
9997;SDS011;5038;53.064;8.624;2023-08-24T12:06:11;7.90;;;3.73;;
9997;SDS011;5038;53.064;8.624;2023-08-24T12:08:40;5.07;;;3.63;;
9997;SDS011;5038;53.064;8.624;2023-08-24T12:11:15;5.67;;;3.60;;
9997;SDS011;5038;53.064;8.624;2023-08-24T12:13:45;4.77;;;4.27;;
9997;SDS011;5038;53.064;8.624;2023-08-24T12:16:15;5.30;;;3.17;;
9997;SDS011;5038;53.064;8.624;2023-08-24T12:18:47;5.80;;;3.83;;
9997;SDS011;5038;53.064;8.624;2023-08-24T12:21:19;5.00;;;3.83;;
9997;SDS011;5038;53.064;8.624;2023-08-24T12:23:57;4.23;;;3.83;;
9997;SDS011;5038;53.064;8.624;2023-08-24T12:26:26;6.60;;;3.90;;
9997;SDS011;5038;53.064;8.624;2023-08-24T12:28:55;4.00;;;3.60;;
9997;SDS011;5038;53.064;8.624;2023-08-24T12:31:29;7.90;;;4.80;;
9997;SDS011;5038;53.064;8.624;2023-08-24T12:34:01;4.53;;;4.13;;
9997;SDS011;5038;53.064;8.624;2023-08-24T12:36:31;4.43;;;3.70;;
9997;SDS011;5038;53.064;8.624;2023-08-24T12:39:00;5.17;;;3.43;;
9997;SDS011;5038;53.064;8.624;2023-08-24T12:41:30;4.50;;;4.10;;
9997;SDS011;5038;53.064;8.624;2023-08-24T12:43:58;4.13;;;3.53;;
9997;SDS011;5038;53.064;8.624;2023-08-24T12:46:32;4.47;;;3.00;;
9997;SDS011;5038;53.064;8.624;2023-08-24T12:49:00;4.47;;;3.53;;
9997;SDS011;5038;53.064;8.624;2023-08-24T12:51:28;3.80;;;3.40;;
9997;SDS011;5038;53.064;8.624;2023-08-24T12:53:57;5.00;;;4.60;;
9997;SDS011;5038;53.064;8.624;2023-08-24T12:56:26;5.20;;;4.63;;
9997;SDS011;5038;53.064;8.624;2023-08-24T12:58:54;5.50;;;5.00;;
9997;SDS011;5038;53.064;8.624;2023-08-24T13:01:22;8.97;;;3.90;;
9997;SDS011;5038;53.064;8.624;2023-08-24T13:03:50;5.47;;;4.60;;
9997;SDS011;5038;53.064;8.624;2023-08-24T13:06:18;5.10;;;3.80;;
9997;SDS011;5038;53.064;8.624;2023-08-24T13:08:50;5.37;;;4.00;;
9997;SDS011;5038;53.064;8.624;2023-08-24T13:11:20;4.60;;;3.97;;
9997;SDS011;5038;53.064;8.624;2023-08-24T13:13:49;4.50;;;4.10;;
9997;SDS011;5038;53.064;8.624;2023-08-24T13:16:17;4.53;;;4.13;;
9997;SDS011;5038;53.064;8.624;2023-08-24T13:18:45;4.20;;;3.77;;
9997;SDS011;5038;53.064;8.624;2023-08-24T13:21:14;4.47;;;3.63;;
9997;SDS011;5038;53.064;8.624;2023-08-24T13:23:44;5.33;;;4.80;;
9997;SDS011;5038;53.064;8.624;2023-08-24T13:26:17;4.23;;;2.83;;
9997;SDS011;5038;53.064;8.624;2023-08-24T13:28:47;5.60;;;3.70;;
9997;SDS011;5038;53.064;8.624;2023-08-24T13:31:16;4.60;;;3.60;;
9997;SDS011;5038;53.064;8.624;2023-08-24T13:33:45;4.47;;;3.80;;
9997;SDS011;5038;53.064;8.624;2023-08-24T13:36:13;5.33;;;3.97;;
9997;SDS011;5038;53.064;8.624;2023-08-24T13:38:42;5.40;;;4.17;;
9997;SDS011;5038;53.064;8.624;2023-08-24T13:41:11;9.17;;;7.23;;
9997;SDS011;5038;53.064;8.624;2023-08-24T13:43:40;5.20;;;4.47;;
9997;SDS011;5038;53.064;8.624;2023-08-24T13:46:10;6.20;;;4.07;;
9997;SDS011;5038;53.064;8.624;2023-08-24T13:48:38;4.20;;;3.80;;
9997;SDS011;5038;53.064;8.624;2023-08-24T13:51:06;3.77;;;3.40;;
9997;SDS011;5038;53.064;8.624;2023-08-24T13:53:35;4.87;;;4.37;;
9997;SDS011;5038;53.064;8.624;2023-08-24T13:56:04;4.93;;;3.20;;
9997;SDS011;5038;53.064;8.624;2023-08-24T13:58:32;5.87;;;3.60;;
9997;SDS011;5038;53.064;8.624;2023-08-24T14:01:00;4.03;;;2.93;;
9997;SDS011;5038;53.064;8.624;2023-08-24T14:03:31;4.30;;;3.70;;
9997;SDS011;5038;53.064;8.624;2023-08-24T14:06:00;6.50;;;3.07;;
9997;SDS011;5038;53.064;8.624;2023-08-24T14:08:29;3.40;;;3.00;;
9997;SDS011;5038;53.064;8.624;2023-08-24T14:10:57;3.90;;;2.87;;
9997;SDS011;5038;53.064;8.624;2023-08-24T14:13:25;3.67;;;2.90;;
9997;SDS011;5038;53.064;8.624;2023-08-24T14:15:53;4.33;;;3.40;;
9997;SDS011;5038;53.064;8.624;2023-08-24T14:18:22;3.13;;;2.80;;
9997;SDS011;5038;53.064;8.624;2023-08-24T14:20:52;5.10;;;3.40;;
9997;SDS011;5038;53.064;8.624;2023-08-24T14:23:20;4.47;;;3.40;;
9997;SDS011;5038;53.064;8.624;2023-08-24T14:25:49;6.03;;;5.43;;
9997;SDS011;5038;53.064;8.624;2023-08-24T14:28:18;5.60;;;5.10;;
9997;SDS011;5038;53.064;8.624;2023-08-24T14:30:47;5.13;;;4.00;;
9997;SDS011;5038;53.064;8.624;2023-08-24T14:33:16;3.70;;;3.00;;
9997;SDS011;5038;53.064;8.624;2023-08-24T14:35:51;3.60;;;3.30;;
9997;SDS011;5038;53.064;8.624;2023-08-24T14:38:21;4.23;;;3.40;;
9997;SDS011;5038;53.064;8.624;2023-08-24T14:40:49;3.97;;;3.37;;
9997;SDS011;5038;53.064;8.624;2023-08-24T14:43:17;3.30;;;2.80;;
9997;SDS011;5038;53.064;8.624;2023-08-24T14:45:45;3.70;;;3.40;;
9997;SDS011;5038;53.064;8.624;2023-08-24T14:48:13;4.10;;;2.93;;
9997;SDS011;5038;53.064;8.624;2023-08-24T14:50:42;4.87;;;2.97;;
9997;SDS011;5038;53.064;8.624;2023-08-24T14:53:11;3.57;;;3.27;;
9997;SDS011;5038;53.064;8.624;2023-08-24T14:55:40;3.80;;;3.40;;
9997;SDS011;5038;53.064;8.624;2023-08-24T14:58:10;4.90;;;3.33;;
9997;SDS011;5038;53.064;8.624;2023-08-24T15:00:38;4.27;;;3.60;;
9997;SDS011;5038;53.064;8.624;2023-08-24T15:03:06;4.07;;;3.60;;
9997;SDS011;5038;53.064;8.624;2023-08-24T15:05:55;4.53;;;3.73;;
9997;SDS011;5038;53.064;8.624;2023-08-24T15:08:26;5.40;;;3.30;;
9997;SDS011;5038;53.064;8.624;2023-08-24T15:10:55;3.97;;;3.37;;
9997;SDS011;5038;53.064;8.624;2023-08-24T15:13:24;5.00;;;3.43;;
9997;SDS011;5038;53.064;8.624;2023-08-24T15:15:54;4.50;;;3.20;;
9997;SDS011;5038;53.064;8.624;2023-08-24T15:18:23;4.70;;;3.00;;
9997;SDS011;5038;53.064;8.624;2023-08-24T15:20:52;8.37;;;7.10;;
9997;SDS011;5038;53.064;8.624;2023-08-24T15:23:21;9.87;;;6.63;;
9997;SDS011;5038;53.064;8.624;2023-08-24T15:26:00;4.20;;;3.90;;
9997;SDS011;5038;53.064;8.624;2023-08-24T15:28:34;4.40;;;3.47;;
9997;SDS011;5038;53.064;8.624;2023-08-24T15:31:04;6.10;;;3.67;;
9997;SDS011;5038;53.064;8.624;2023-08-24T15:33:32;7.73;;;3.60;;